Altamont, Utah
Current Conditions -  °F | °C
As of 10:26 PM on Saturday 20 Dec 2014 (Local Time) from KVEL Reporting Station
Haze Haze  
Wind Chill: 29°   Ceiling: 3500
Heat Index: 29°   Visibility: 6mi
Dew Point: 26°   Wind: 3mph
Humidity: 89%   Direction: 290°WNW
Pressure: 30.09"   Gusts: NA
Location:  40.36°N, 110.29°W
Report Text: KVEL 210526Z AUTO 29003KT 6SM BR FEW020 OVC035 M02/M03 A3009 RMK AO2 T10171033
Loading
Personal Weather Stations






























Interactive Weather Map New forecast layout! Learn more

10-Day Weather Forecast

Advertisements
Track Severe Weather on mobile